sensor_id;sensor_type;location;lat;lon;timestamp;P1;durP1;ratioP1;P2;durP2;ratioP2
18499;SDS011;9379;52.134;11.576;2023-12-20T00:02:24;1.52;;;1.42;;
18499;SDS011;9379;52.134;11.576;2023-12-20T00:04:50;1.65;;;1.55;;
18499;SDS011;9379;52.134;11.576;2023-12-20T00:07:17;1.35;;;1.25;;
18499;SDS011;9379;52.134;11.576;2023-12-20T00:09:44;1.50;;;1.40;;
18499;SDS011;9379;52.134;11.576;2023-12-20T00:12:11;2.13;;;2.03;;
18499;SDS011;9379;52.134;11.576;2023-12-20T00:14:38;1.40;;;1.33;;
18499;SDS011;9379;52.134;11.576;2023-12-20T00:17:06;1.67;;;1.58;;
18499;SDS011;9379;52.134;11.576;2023-12-20T00:19:34;2.22;;;2.03;;
18499;SDS011;9379;52.134;11.576;2023-12-20T00:22:01;1.42;;;1.33;;
18499;SDS011;9379;52.134;11.576;2023-12-20T00:24:27;1.67;;;1.40;;
18499;SDS011;9379;52.134;11.576;2023-12-20T00:26:54;1.52;;;1.42;;
18499;SDS011;9379;52.134;11.576;2023-12-20T00:29:21;15.73;;;10.38;;
18499;SDS011;9379;52.134;11.576;2023-12-20T00:31:48;8.98;;;6.65;;
18499;SDS011;9379;52.134;11.576;2023-12-20T00:34:16;7.53;;;6.82;;
18499;SDS011;9379;52.134;11.576;2023-12-20T00:36:43;6.35;;;5.03;;
18499;SDS011;9379;52.134;11.576;2023-12-20T00:39:10;4.68;;;4.38;;
18499;SDS011;9379;52.134;11.576;2023-12-20T00:41:37;3.90;;;3.67;;
18499;SDS011;9379;52.134;11.576;2023-12-20T00:44:04;3.10;;;2.90;;
18499;SDS011;9379;52.134;11.576;2023-12-20T00:46:30;3.00;;;2.72;;
18499;SDS011;9379;52.134;11.576;2023-12-20T00:48:57;2.35;;;2.15;;
18499;SDS011;9379;52.134;11.576;2023-12-20T00:51:25;2.20;;;2.10;;
18499;SDS011;9379;52.134;11.576;2023-12-20T00:53:52;2.35;;;2.20;;
18499;SDS011;9379;52.134;11.576;2023-12-20T00:56:20;1.70;;;1.60;;
18499;SDS011;9379;52.134;11.576;2023-12-20T00:58:46;5.00;;;2.22;;
18499;SDS011;9379;52.134;11.576;2023-12-20T01:01:13;2.30;;;2.20;;
18499;SDS011;9379;52.134;11.576;2023-12-20T01:03:41;1.92;;;1.83;;
18499;SDS011;9379;52.134;11.576;2023-12-20T01:06:08;1.95;;;1.83;;
18499;SDS011;9379;52.134;11.576;2023-12-20T01:08:36;2.95;;;2.75;;
18499;SDS011;9379;52.134;11.576;2023-12-20T01:11:03;2.90;;;2.70;;
18499;SDS011;9379;52.134;11.576;2023-12-20T01:13:31;2.95;;;2.72;;
18499;SDS011;9379;52.134;11.576;2023-12-20T01:15:58;2.38;;;2.28;;
18499;SDS011;9379;52.134;11.576;2023-12-20T01:18:24;2.63;;;2.42;;
18499;SDS011;9379;52.134;11.576;2023-12-20T01:20:51;2.33;;;2.13;;
18499;SDS011;9379;52.134;11.576;2023-12-20T01:23:18;2.15;;;2.05;;
18499;SDS011;9379;52.134;11.576;2023-12-20T01:25:47;2.30;;;2.17;;
18499;SDS011;9379;52.134;11.576;2023-12-20T01:28:15;1.80;;;1.70;;
18499;SDS011;9379;52.134;11.576;2023-12-20T01:30:42;2.45;;;2.25;;
18499;SDS011;9379;52.134;11.576;2023-12-20T01:33:09;2.00;;;1.90;;
18499;SDS011;9379;52.134;11.576;2023-12-20T01:35:36;2.40;;;2.30;;
18499;SDS011;9379;52.134;11.576;2023-12-20T01:38:03;1.63;;;1.52;;
18499;SDS011;9379;52.134;11.576;2023-12-20T01:40:30;2.50;;;2.30;;
18499;SDS011;9379;52.134;11.576;2023-12-20T01:43:01;2.20;;;2.00;;
18499;SDS011;9379;52.134;11.576;2023-12-20T01:45:33;2.63;;;2.42;;
18499;SDS011;9379;52.134;11.576;2023-12-20T01:48:01;1.75;;;1.65;;
18499;SDS011;9379;52.134;11.576;2023-12-20T01:50:29;1.95;;;1.85;;
18499;SDS011;9379;52.134;11.576;2023-12-20T01:52:57;1.75;;;1.65;;
18499;SDS011;9379;52.134;11.576;2023-12-20T01:55:25;1.83;;;1.73;;
18499;SDS011;9379;52.134;11.576;2023-12-20T01:57:55;1.85;;;1.75;;
18499;SDS011;9379;52.134;11.576;2023-12-20T02:00:25;2.97;;;1.40;;
18499;SDS011;9379;52.134;11.576;2023-12-20T02:02:54;1.60;;;1.20;;
18499;SDS011;9379;52.134;11.576;2023-12-20T02:05:21;1.58;;;1.48;;
18499;SDS011;9379;52.134;11.576;2023-12-20T02:07:48;2.70;;;1.00;;
18499;SDS011;9379;52.134;11.576;2023-12-20T02:10:15;4.00;;;1.85;;
18499;SDS011;9379;52.134;11.576;2023-12-20T02:12:42;1.20;;;1.13;;
18499;SDS011;9379;52.134;11.576;2023-12-20T02:15:09;1.45;;;1.35;;
18499;SDS011;9379;52.134;11.576;2023-12-20T02:17:40;0.95;;;0.90;;
18499;SDS011;9379;52.134;11.576;2023-12-20T02:20:08;1.17;;;1.17;;
18499;SDS011;9379;52.134;11.576;2023-12-20T02:22:36;1.02;;;1.02;;
18499;SDS011;9379;52.134;11.576;2023-12-20T02:25:04;1.55;;;1.45;;
18499;SDS011;9379;52.134;11.576;2023-12-20T02:27:31;1.10;;;1.10;;
18499;SDS011;9379;52.134;11.576;2023-12-20T02:29:58;3.38;;;1.52;;
18499;SDS011;9379;52.134;11.576;2023-12-20T02:32:24;1.23;;;0.93;;
18499;SDS011;9379;52.134;11.576;2023-12-20T02:34:53;3.63;;;2.03;;
18499;SDS011;9379;52.134;11.576;2023-12-20T02:37:21;3.90;;;1.45;;
18499;SDS011;9379;52.134;11.576;2023-12-20T02:39:49;1.63;;;1.48;;
18499;SDS011;9379;52.134;11.576;2023-12-20T02:42:16;3.63;;;2.00;;
18499;SDS011;9379;52.134;11.576;2023-12-20T02:44:43;1.42;;;1.33;;
18499;SDS011;9379;52.134;11.576;2023-12-20T02:47:10;3.55;;;1.55;;
18499;SDS011;9379;52.134;11.576;2023-12-20T02:49:37;1.85;;;1.75;;
18499;SDS011;9379;52.134;11.576;2023-12-20T02:52:04;1.50;;;1.40;;
18499;SDS011;9379;52.134;11.576;2023-12-20T02:54:31;2.38;;;2.17;;
18499;SDS011;9379;52.134;11.576;2023-12-20T02:56:59;1.10;;;1.10;;
18499;SDS011;9379;52.134;11.576;2023-12-20T02:59:26;8.27;;;2.88;;
18499;SDS011;9379;52.134;11.576;2023-12-20T03:01:53;1.95;;;1.67;;
18499;SDS011;9379;52.134;11.576;2023-12-20T03:04:20;1.40;;;1.30;;
18499;SDS011;9379;52.134;11.576;2023-12-20T03:06:47;2.53;;;1.80;;
18499;SDS011;9379;52.134;11.576;2023-12-20T03:09:14;1.45;;;1.35;;
18499;SDS011;9379;52.134;11.576;2023-12-20T03:11:41;7.00;;;1.92;;
18499;SDS011;9379;52.134;11.576;2023-12-20T03:14:09;2.40;;;2.20;;
18499;SDS011;9379;52.134;11.576;2023-12-20T03:16:36;3.00;;;2.05;;
18499;SDS011;9379;52.134;11.576;2023-12-20T03:19:03;3.67;;;2.50;;
18499;SDS011;9379;52.134;11.576;2023-12-20T03:21:29;2.17;;;1.92;;
18499;SDS011;9379;52.134;11.576;2023-12-20T03:23:56;2.22;;;2.03;;
18499;SDS011;9379;52.134;11.576;2023-12-20T03:26:23;1.80;;;1.60;;
18499;SDS011;9379;52.134;11.576;2023-12-20T03:28:50;1.70;;;1.60;;
18499;SDS011;9379;52.134;11.576;2023-12-20T03:31:18;1.75;;;1.23;;
18499;SDS011;9379;52.134;11.576;2023-12-20T03:33:46;1.92;;;1.75;;
18499;SDS011;9379;52.134;11.576;2023-12-20T03:36:13;2.13;;;1.92;;
18499;SDS011;9379;52.134;11.576;2023-12-20T03:38:39;4.85;;;2.20;;
18499;SDS011;9379;52.134;11.576;2023-12-20T03:41:06;3.22;;;3.00;;
18499;SDS011;9379;52.134;11.576;2023-12-20T03:43:34;1.67;;;1.58;;
18499;SDS011;9379;52.134;11.576;2023-12-20T03:46:00;7.88;;;1.70;;
18499;SDS011;9379;52.134;11.576;2023-12-20T03:48:30;2.58;;;1.77;;
18499;SDS011;9379;52.134;11.576;2023-12-20T03:50:57;1.55;;;1.45;;
18499;SDS011;9379;52.134;11.576;2023-12-20T03:53:24;3.53;;;2.00;;
18499;SDS011;9379;52.134;11.576;2023-12-20T03:55:50;1.55;;;1.45;;
18499;SDS011;9379;52.134;11.576;2023-12-20T03:58:18;1.45;;;1.35;;
18499;SDS011;9379;52.134;11.576;2023-12-20T04:00:45;4.13;;;1.73;;
18499;SDS011;9379;52.134;11.576;2023-12-20T04:03:11;3.08;;;2.20;;
18499;SDS011;9379;52.134;11.576;2023-12-20T04:05:40;2.67;;;2.13;;
18499;SDS011;9379;52.134;11.576;2023-12-20T04:08:07;1.60;;;1.50;;
18499;SDS011;9379;52.134;11.576;2023-12-20T04:10:35;8.05;;;2.45;;
18499;SDS011;9379;52.134;11.576;2023-12-20T04:13:02;5.13;;;2.72;;
18499;SDS011;9379;52.134;11.576;2023-12-20T04:15:30;2.72;;;2.53;;
18499;SDS011;9379;52.134;11.576;2023-12-20T04:17:56;2.58;;;1.60;;
18499;SDS011;9379;52.134;11.576;2023-12-20T04:20:23;1.40;;;1.30;;
18499;SDS011;9379;52.134;11.576;2023-12-20T04:22:52;2.35;;;2.00;;
18499;SDS011;9379;52.134;11.576;2023-12-20T04:25:18;3.08;;;1.70;;
18499;SDS011;9379;52.134;11.576;2023-12-20T04:27:45;2.65;;;2.45;;
18499;SDS011;9379;52.134;11.576;2023-12-20T04:30:12;6.13;;;2.20;;
18499;SDS011;9379;52.134;11.576;2023-12-20T04:32:39;10.35;;;3.25;;
18499;SDS011;9379;52.134;11.576;2023-12-20T04:35:06;2.13;;;1.98;;
18499;SDS011;9379;52.134;11.576;2023-12-20T04:37:34;4.85;;;2.38;;
18499;SDS011;9379;52.134;11.576;2023-12-20T04:40:02;2.45;;;2.15;;
18499;SDS011;9379;52.134;11.576;2023-12-20T04:42:30;3.20;;;1.75;;
18499;SDS011;9379;52.134;11.576;2023-12-20T04:44:57;1.60;;;1.50;;
18499;SDS011;9379;52.134;11.576;2023-12-20T04:47:24;2.70;;;1.67;;
18499;SDS011;9379;52.134;11.576;2023-12-20T04:49:51;2.30;;;1.83;;
18499;SDS011;9379;52.134;11.576;2023-12-20T04:52:18;3.83;;;2.60;;
18499;SDS011;9379;52.134;11.576;2023-12-20T04:54:44;13.48;;;3.85;;
18499;SDS011;9379;52.134;11.576;2023-12-20T04:57:13;5.28;;;2.15;;
18499;SDS011;9379;52.134;11.576;2023-12-20T04:59:40;1.88;;;1.67;;
18499;SDS011;9379;52.134;11.576;2023-12-20T05:02:06;2.60;;;2.08;;
18499;SDS011;9379;52.134;11.576;2023-12-20T05:04:33;2.30;;;2.13;;
18499;SDS011;9379;52.134;11.576;2023-12-20T05:07:00;2.97;;;1.30;;
18499;SDS011;9379;52.134;11.576;2023-12-20T05:09:27;2.00;;;1.23;;
18499;SDS011;9379;52.134;11.576;2023-12-20T05:11:54;2.25;;;1.20;;
18499;SDS011;9379;52.134;11.576;2023-12-20T05:14:22;1.65;;;1.20;;
18499;SDS011;9379;52.134;11.576;2023-12-20T05:16:49;3.80;;;1.60;;
18499;SDS011;9379;52.134;11.576;2023-12-20T05:19:16;1.08;;;1.00;;
18499;SDS011;9379;52.134;11.576;2023-12-20T05:21:43;4.68;;;1.35;;
18499;SDS011;9379;52.134;11.576;2023-12-20T05:24:10;1.77;;;1.67;;
18499;SDS011;9379;52.134;11.576;2023-12-20T05:26:37;1.48;;;1.38;;
18499;SDS011;9379;52.134;11.576;2023-12-20T05:29:04;3.63;;;2.08;;
18499;SDS011;9379;52.134;11.576;2023-12-20T05:31:32;4.13;;;1.25;;
18499;SDS011;9379;52.134;11.576;2023-12-20T05:33:59;3.03;;;2.08;;
18499;SDS011;9379;52.134;11.576;2023-12-20T05:36:26;1.60;;;1.52;;
18499;SDS011;9379;52.134;11.576;2023-12-20T05:38:53;1.85;;;1.48;;
18499;SDS011;9379;52.134;11.576;2023-12-20T05:41:20;1.65;;;1.55;;
18499;SDS011;9379;52.134;11.576;2023-12-20T05:43:48;3.25;;;1.80;;
18499;SDS011;9379;52.134;11.576;2023-12-20T05:46:15;1.75;;;1.65;;
18499;SDS011;9379;52.134;11.576;2023-12-20T05:48:45;1.00;;;1.00;;
18499;SDS011;9379;52.134;11.576;2023-12-20T05:51:12;5.55;;;1.23;;
18499;SDS011;9379;52.134;11.576;2023-12-20T05:53:39;1.88;;;1.48;;
18499;SDS011;9379;52.134;11.576;2023-12-20T05:56:05;4.35;;;1.55;;
18499;SDS011;9379;52.134;11.576;2023-12-20T05:58:32;3.47;;;1.50;;
18499;SDS011;9379;52.134;11.576;2023-12-20T06:00:59;3.53;;;3.20;;
18499;SDS011;9379;52.134;11.576;2023-12-20T06:03:26;3.72;;;3.38;;
18499;SDS011;9379;52.134;11.576;2023-12-20T06:05:55;3.08;;;2.50;;
18499;SDS011;9379;52.134;11.576;2023-12-20T06:08:21;3.70;;;2.60;;
18499;SDS011;9379;52.134;11.576;2023-12-20T06:10:48;1.83;;;1.73;;
18499;SDS011;9379;52.134;11.576;2023-12-20T06:13:15;4.03;;;2.05;;
18499;SDS011;9379;52.134;11.576;2023-12-20T06:15:42;3.35;;;1.58;;
18499;SDS011;9379;52.134;11.576;2023-12-20T06:18:09;1.77;;;1.67;;
18499;SDS011;9379;52.134;11.576;2023-12-20T06:20:36;3.00;;;2.25;;
18499;SDS011;9379;52.134;11.576;2023-12-20T06:23:04;1.50;;;1.40;;
18499;SDS011;9379;52.134;11.576;2023-12-20T06:25:31;2.75;;;2.13;;
18499;SDS011;9379;52.134;11.576;2023-12-20T06:27:58;6.95;;;2.97;;
18499;SDS011;9379;52.134;11.576;2023-12-20T06:30:25;2.63;;;2.42;;
18499;SDS011;9379;52.134;11.576;2023-12-20T06:32:52;4.63;;;1.50;;
18499;SDS011;9379;52.134;11.576;2023-12-20T06:35:20;1.60;;;1.50;;
18499;SDS011;9379;52.134;11.576;2023-12-20T06:37:46;6.95;;;1.58;;
18499;SDS011;9379;52.134;11.576;2023-12-20T06:40:15;1.67;;;1.55;;
18499;SDS011;9379;52.134;11.576;2023-12-20T06:42:42;4.15;;;2.28;;
18499;SDS011;9379;52.134;11.576;2023-12-20T06:45:10;6.38;;;1.65;;
18499;SDS011;9379;52.134;11.576;2023-12-20T06:47:37;4.80;;;1.55;;
18499;SDS011;9379;52.134;11.576;2023-12-20T06:50:05;1.45;;;1.25;;
18499;SDS011;9379;52.134;11.576;2023-12-20T06:52:33;3.72;;;1.65;;
18499;SDS011;9379;52.134;11.576;2023-12-20T06:55:00;1.55;;;1.45;;
18499;SDS011;9379;52.134;11.576;2023-12-20T06:57:28;1.73;;;1.63;;
18499;SDS011;9379;52.134;11.576;2023-12-20T06:59:55;3.97;;;2.03;;
18499;SDS011;9379;52.134;11.576;2023-12-20T07:02:23;2.08;;;1.98;;
18499;SDS011;9379;52.134;11.576;2023-12-20T07:04:49;1.88;;;1.33;;
18499;SDS011;9379;52.134;11.576;2023-12-20T07:07:16;2.50;;;1.77;;
18499;SDS011;9379;52.134;11.576;2023-12-20T07:09:43;1.25;;;1.20;;
18499;SDS011;9379;52.134;11.576;2023-12-20T07:12:17;2.33;;;1.35;;
18499;SDS011;9379;52.134;11.576;2023-12-20T07:14:48;1.08;;;1.00;;
18499;SDS011;9379;52.134;11.576;2023-12-20T07:17:15;4.22;;;1.80;;
18499;SDS011;9379;52.134;11.576;2023-12-20T07:19:42;1.45;;;1.35;;
18499;SDS011;9379;52.134;11.576;2023-12-20T07:22:09;1.88;;;1.75;;
18499;SDS011;9379;52.134;11.576;2023-12-20T07:24:36;2.70;;;2.05;;
18499;SDS011;9379;52.134;11.576;2023-12-20T07:27:03;1.35;;;1.23;;
18499;SDS011;9379;52.134;11.576;2023-12-20T07:29:30;3.75;;;1.40;;
18499;SDS011;9379;52.134;11.576;2023-12-20T07:31:58;3.63;;;3.28;;
18499;SDS011;9379;52.134;11.576;2023-12-20T07:34:25;1.55;;;1.45;;
18499;SDS011;9379;52.134;11.576;2023-12-20T07:36:52;8.18;;;2.00;;
18499;SDS011;9379;52.134;11.576;2023-12-20T07:39:19;3.28;;;1.75;;
18499;SDS011;9379;52.134;11.576;2023-12-20T07:41:46;7.03;;;2.53;;
18499;SDS011;9379;52.134;11.576;2023-12-20T07:44:13;5.28;;;1.48;;
18499;SDS011;9379;52.134;11.576;2023-12-20T07:46:40;1.63;;;1.52;;
18499;SDS011;9379;52.134;11.576;2023-12-20T07:49:09;15.85;;;5.32;;
18499;SDS011;9379;52.134;11.576;2023-12-20T07:51:36;4.38;;;3.80;;
18499;SDS011;9379;52.134;11.576;2023-12-20T07:54:03;7.18;;;3.03;;
18499;SDS011;9379;52.134;11.576;2023-12-20T07:56:30;7.90;;;4.25;;
18499;SDS011;9379;52.134;11.576;2023-12-20T07:58:57;1.92;;;1.73;;
18499;SDS011;9379;52.134;11.576;2023-12-20T08:01:24;3.92;;;1.85;;
18499;SDS011;9379;52.134;11.576;2023-12-20T08:03:50;1.95;;;1.45;;
18499;SDS011;9379;52.134;11.576;2023-12-20T08:06:19;9.88;;;3.72;;
18499;SDS011;9379;52.134;11.576;2023-12-20T08:08:46;7.25;;;2.10;;
18499;SDS011;9379;52.134;11.576;2023-12-20T08:11:13;6.00;;;3.00;;
18499;SDS011;9379;52.134;11.576;2023-12-20T08:13:40;3.85;;;2.35;;
18499;SDS011;9379;52.134;11.576;2023-12-20T08:16:06;6.28;;;2.50;;
18499;SDS011;9379;52.134;11.576;2023-12-20T08:18:34;8.65;;;2.45;;
18499;SDS011;9379;52.134;11.576;2023-12-20T08:21:01;8.30;;;2.70;;
18499;SDS011;9379;52.134;11.576;2023-12-20T08:23:29;4.72;;;2.28;;
18499;SDS011;9379;52.134;11.576;2023-12-20T08:25:56;7.88;;;3.60;;
18499;SDS011;9379;52.134;11.576;2023-12-20T08:28:23;5.30;;;3.97;;
18499;SDS011;9379;52.134;11.576;2023-12-20T08:30:49;6.03;;;3.42;;
18499;SDS011;9379;52.134;11.576;2023-12-20T08:33:18;7.10;;;4.65;;
18499;SDS011;9379;52.134;11.576;2023-12-20T08:35:45;12.10;;;3.22;;
18499;SDS011;9379;52.134;11.576;2023-12-20T08:38:12;4.18;;;3.10;;
18499;SDS011;9379;52.134;11.576;2023-12-20T08:40:41;3.10;;;2.80;;
18499;SDS011;9379;52.134;11.576;2023-12-20T08:43:07;3.13;;;2.67;;
18499;SDS011;9379;52.134;11.576;2023-12-20T08:45:34;5.78;;;2.90;;
18499;SDS011;9379;52.134;11.576;2023-12-20T08:48:01;4.47;;;3.05;;
18499;SDS011;9379;52.134;11.576;2023-12-20T08:50:29;5.60;;;4.10;;
18499;SDS011;9379;52.134;11.576;2023-12-20T08:52:56;4.07;;;2.80;;
18499;SDS011;9379;52.134;11.576;2023-12-20T08:55:22;3.92;;;2.85;;
18499;SDS011;9379;52.134;11.576;2023-12-20T08:57:51;8.00;;;4.85;;
18499;SDS011;9379;52.134;11.576;2023-12-20T09:00:18;6.80;;;5.03;;
18499;SDS011;9379;52.134;11.576;2023-12-20T09:02:46;6.72;;;3.47;;
18499;SDS011;9379;52.134;11.576;2023-12-20T09:05:13;6.50;;;3.83;;
18499;SDS011;9379;52.134;11.576;2023-12-20T09:07:40;8.52;;;3.58;;
18499;SDS011;9379;52.134;11.576;2023-12-20T09:10:07;3.58;;;2.33;;
18499;SDS011;9379;52.134;11.576;2023-12-20T09:12:34;5.10;;;2.90;;
18499;SDS011;9379;52.134;11.576;2023-12-20T09:15:06;4.32;;;2.45;;
18499;SDS011;9379;52.134;11.576;2023-12-20T09:17:33;4.10;;;2.70;;
18499;SDS011;9379;52.134;11.576;2023-12-20T09:20:00;7.85;;;3.65;;
18499;SDS011;9379;52.134;11.576;2023-12-20T09:22:27;9.55;;;2.92;;
18499;SDS011;9379;52.134;11.576;2023-12-20T09:24:54;1.90;;;1.70;;
18499;SDS011;9379;52.134;11.576;2023-12-20T09:27:21;3.42;;;2.13;;
18499;SDS011;9379;52.134;11.576;2023-12-20T09:29:48;3.83;;;1.98;;
18499;SDS011;9379;52.134;11.576;2023-12-20T09:32:16;2.75;;;2.55;;
18499;SDS011;9379;52.134;11.576;2023-12-20T09:34:43;1.20;;;1.20;;
18499;SDS011;9379;52.134;11.576;2023-12-20T09:37:10;2.70;;;2.33;;
18499;SDS011;9379;52.134;11.576;2023-12-20T09:39:37;2.13;;;1.63;;
18499;SDS011;9379;52.134;11.576;2023-12-20T09:42:04;3.30;;;2.65;;
18499;SDS011;9379;52.134;11.576;2023-12-20T09:44:32;2.85;;;1.88;;
18499;SDS011;9379;52.134;11.576;2023-12-20T09:47:03;6.22;;;2.22;;
18499;SDS011;9379;52.134;11.576;2023-12-20T09:49:32;2.10;;;1.77;;
18499;SDS011;9379;52.134;11.576;2023-12-20T09:51:59;7.97;;;2.33;;
18499;SDS011;9379;52.134;11.576;2023-12-20T09:54:27;4.63;;;3.28;;
18499;SDS011;9379;52.134;11.576;2023-12-20T09:56:55;5.97;;;2.30;;
18499;SDS011;9379;52.134;11.576;2023-12-20T09:59:22;6.82;;;2.88;;
18499;SDS011;9379;52.134;11.576;2023-12-20T10:01:49;3.05;;;2.33;;
18499;SDS011;9379;52.134;11.576;2023-12-20T10:04:20;5.32;;;3.53;;
18499;SDS011;9379;52.134;11.576;2023-12-20T10:06:48;6.90;;;2.00;;
18499;SDS011;9379;52.134;11.576;2023-12-20T10:09:15;3.28;;;1.45;;
18499;SDS011;9379;52.134;11.576;2023-12-20T10:11:42;8.98;;;2.38;;
18499;SDS011;9379;52.134;11.576;2023-12-20T10:14:10;6.43;;;2.55;;
18499;SDS011;9379;52.134;11.576;2023-12-20T10:16:37;1.77;;;1.50;;
18499;SDS011;9379;52.134;11.576;2023-12-20T10:19:04;2.95;;;2.55;;
18499;SDS011;9379;52.134;11.576;2023-12-20T10:21:31;2.42;;;1.92;;
18499;SDS011;9379;52.134;11.576;2023-12-20T10:24:00;4.93;;;2.17;;
18499;SDS011;9379;52.134;11.576;2023-12-20T10:26:27;4.70;;;2.45;;
18499;SDS011;9379;52.134;11.576;2023-12-20T10:28:55;12.63;;;2.47;;
18499;SDS011;9379;52.134;11.576;2023-12-20T10:31:26;3.70;;;2.15;;
18499;SDS011;9379;52.134;11.576;2023-12-20T10:33:55;2.92;;;1.60;;
18499;SDS011;9379;52.134;11.576;2023-12-20T10:36:23;9.32;;;2.97;;
18499;SDS011;9379;52.134;11.576;2023-12-20T10:38:52;7.43;;;3.17;;
18499;SDS011;9379;52.134;11.576;2023-12-20T10:41:23;2.30;;;2.20;;
18499;SDS011;9379;52.134;11.576;2023-12-20T10:43:53;1.85;;;1.70;;
18499;SDS011;9379;52.134;11.576;2023-12-20T10:46:26;2.22;;;2.03;;
18499;SDS011;9379;52.134;11.576;2023-12-20T10:48:53;1.85;;;1.75;;
18499;SDS011;9379;52.134;11.576;2023-12-20T10:51:21;4.88;;;2.40;;
18499;SDS011;9379;52.134;11.576;2023-12-20T10:53:49;7.55;;;1.92;;
18499;SDS011;9379;52.134;11.576;2023-12-20T10:56:17;7.15;;;3.17;;
18499;SDS011;9379;52.134;11.576;2023-12-20T10:58:46;4.60;;;3.08;;
18499;SDS011;9379;52.134;11.576;2023-12-20T11:01:14;8.57;;;2.45;;
18499;SDS011;9379;52.134;11.576;2023-12-20T11:03:44;2.90;;;1.88;;
18499;SDS011;9379;52.134;11.576;2023-12-20T11:06:19;2.67;;;2.33;;
18499;SDS011;9379;52.134;11.576;2023-12-20T11:08:56;2.78;;;2.55;;
18499;SDS011;9379;52.134;11.576;2023-12-20T11:11:35;3.03;;;2.72;;
18499;SDS011;9379;52.134;11.576;2023-12-20T11:14:13;5.57;;;3.55;;
18499;SDS011;9379;52.134;11.576;2023-12-20T11:16:43;2.63;;;2.42;;
18499;SDS011;9379;52.134;11.576;2023-12-20T11:19:11;6.28;;;2.42;;
18499;SDS011;9379;52.134;11.576;2023-12-20T11:21:40;4.80;;;2.28;;
18499;SDS011;9379;52.134;11.576;2023-12-20T11:24:07;2.78;;;1.95;;
18499;SDS011;9379;52.134;11.576;2023-12-20T11:26:35;3.80;;;2.67;;
18499;SDS011;9379;52.134;11.576;2023-12-20T11:31:59;4.80;;;3.10;;
18499;SDS011;9379;52.134;11.576;2023-12-20T11:34:27;5.85;;;2.10;;
18499;SDS011;9379;52.134;11.576;2023-12-20T11:36:58;2.15;;;2.03;;
18499;SDS011;9379;52.134;11.576;2023-12-20T11:39:26;5.68;;;2.40;;
18499;SDS011;9379;52.134;11.576;2023-12-20T11:41:55;2.05;;;1.83;;
18499;SDS011;9379;52.134;11.576;2023-12-20T11:44:25;2.75;;;2.47;;
18499;SDS011;9379;52.134;11.576;2023-12-20T11:46:54;2.50;;;2.20;;
18499;SDS011;9379;52.134;11.576;2023-12-20T11:49:24;5.03;;;2.22;;
18499;SDS011;9379;52.134;11.576;2023-12-20T11:51:51;5.63;;;2.63;;
18499;SDS011;9379;52.134;11.576;2023-12-20T11:54:18;2.15;;;2.05;;
18499;SDS011;9379;52.134;11.576;2023-12-20T11:56:45;4.75;;;2.63;;
18499;SDS011;9379;52.134;11.576;2023-12-20T11:59:12;2.33;;;2.10;;
18499;SDS011;9379;52.134;11.576;2023-12-20T12:01:39;4.40;;;2.28;;
18499;SDS011;9379;52.134;11.576;2023-12-20T12:04:07;6.47;;;2.58;;
18499;SDS011;9379;52.134;11.576;2023-12-20T12:06:35;4.18;;;2.63;;
18499;SDS011;9379;52.134;11.576;2023-12-20T12:09:02;2.13;;;1.90;;
18499;SDS011;9379;52.134;11.576;2023-12-20T12:11:29;2.55;;;2.35;;
18499;SDS011;9379;52.134;11.576;2023-12-20T12:13:56;3.78;;;3.08;;
18499;SDS011;9379;52.134;11.576;2023-12-20T12:16:23;2.97;;;2.70;;
18499;SDS011;9379;52.134;11.576;2023-12-20T12:18:55;5.50;;;3.33;;
18499;SDS011;9379;52.134;11.576;2023-12-20T12:21:24;3.65;;;1.90;;
18499;SDS011;9379;52.134;11.576;2023-12-20T12:23:51;3.17;;;2.95;;
18499;SDS011;9379;52.134;11.576;2023-12-20T12:26:18;6.28;;;2.97;;
18499;SDS011;9379;52.134;11.576;2023-12-20T12:28:45;4.80;;;2.72;;
18499;SDS011;9379;52.134;11.576;2023-12-20T12:31:15;3.03;;;2.67;;
18499;SDS011;9379;52.134;11.576;2023-12-20T12:33:42;5.78;;;3.47;;
18499;SDS011;9379;52.134;11.576;2023-12-20T12:36:10;9.02;;;4.97;;
18499;SDS011;9379;52.134;11.576;2023-12-20T12:38:42;11.70;;;5.78;;
18499;SDS011;9379;52.134;11.576;2023-12-20T12:41:09;7.43;;;5.82;;
18499;SDS011;9379;52.134;11.576;2023-12-20T12:43:40;5.30;;;4.90;;
18499;SDS011;9379;52.134;11.576;2023-12-20T12:46:07;8.63;;;5.28;;
18499;SDS011;9379;52.134;11.576;2023-12-20T12:48:34;5.78;;;5.40;;
18499;SDS011;9379;52.134;11.576;2023-12-20T12:51:01;5.72;;;4.20;;
18499;SDS011;9379;52.134;11.576;2023-12-20T12:53:28;3.08;;;2.83;;
18499;SDS011;9379;52.134;11.576;2023-12-20T12:55:56;2.65;;;2.33;;
18499;SDS011;9379;52.134;11.576;2023-12-20T12:58:23;6.22;;;3.50;;
18499;SDS011;9379;52.134;11.576;2023-12-20T13:00:50;6.03;;;4.15;;
18499;SDS011;9379;52.134;11.576;2023-12-20T13:03:17;4.55;;;2.88;;
18499;SDS011;9379;52.134;11.576;2023-12-20T13:05:44;2.78;;;2.50;;
18499;SDS011;9379;52.134;11.576;2023-12-20T13:08:12;3.97;;;3.10;;
18499;SDS011;9379;52.134;11.576;2023-12-20T13:10:39;5.82;;;2.28;;
18499;SDS011;9379;52.134;11.576;2023-12-20T13:13:07;4.07;;;2.70;;
18499;SDS011;9379;52.134;11.576;2023-12-20T13:15:34;2.45;;;2.25;;
18499;SDS011;9379;52.134;11.576;2023-12-20T13:18:01;2.50;;;2.30;;
18499;SDS011;9379;52.134;11.576;2023-12-20T13:20:29;2.63;;;2.42;;
18499;SDS011;9379;52.134;11.576;2023-12-20T13:22:57;2.42;;;2.22;;
18499;SDS011;9379;52.134;11.576;2023-12-20T13:25:23;3.25;;;2.70;;
18499;SDS011;9379;52.134;11.576;2023-12-20T13:27:50;2.20;;;2.05;;
18499;SDS011;9379;52.134;11.576;2023-12-20T13:30:19;2.80;;;2.60;;
18499;SDS011;9379;52.134;11.576;2023-12-20T13:32:46;2.60;;;2.40;;
18499;SDS011;9379;52.134;11.576;2023-12-20T13:35:14;3.22;;;2.45;;
18499;SDS011;9379;52.134;11.576;2023-12-20T13:37:41;1.48;;;1.45;;
18499;SDS011;9379;52.134;11.576;2023-12-20T13:40:09;2.10;;;1.60;;
18499;SDS011;9379;52.134;11.576;2023-12-20T13:42:37;1.73;;;1.63;;
18499;SDS011;9379;52.134;11.576;2023-12-20T13:45:05;3.05;;;1.85;;
18499;SDS011;9379;52.134;11.576;2023-12-20T13:47:37;1.60;;;1.50;;
18499;SDS011;9379;52.134;11.576;2023-12-20T13:50:04;2.42;;;1.30;;
18499;SDS011;9379;52.134;11.576;2023-12-20T13:52:32;1.65;;;1.55;;
18499;SDS011;9379;52.134;11.576;2023-12-20T13:54:59;1.83;;;1.73;;
18499;SDS011;9379;52.134;11.576;2023-12-20T13:57:26;2.75;;;1.30;;
18499;SDS011;9379;52.134;11.576;2023-12-20T13:59:54;1.27;;;1.17;;
18499;SDS011;9379;52.134;11.576;2023-12-20T14:02:22;2.65;;;1.63;;
18499;SDS011;9379;52.134;11.576;2023-12-20T14:04:51;1.13;;;1.13;;
18499;SDS011;9379;52.134;11.576;2023-12-20T14:07:18;3.55;;;1.42;;
18499;SDS011;9379;52.134;11.576;2023-12-20T14:09:44;1.15;;;1.13;;
18499;SDS011;9379;52.134;11.576;2023-12-20T14:12:11;0.82;;;0.80;;
18499;SDS011;9379;52.134;11.576;2023-12-20T14:14:38;1.33;;;1.23;;
18499;SDS011;9379;52.134;11.576;2023-12-20T14:17:05;1.23;;;1.13;;
18499;SDS011;9379;52.134;11.576;2023-12-20T14:19:32;1.05;;;0.98;;
18499;SDS011;9379;52.134;11.576;2023-12-20T14:22:00;1.38;;;1.27;;
18499;SDS011;9379;52.134;11.576;2023-12-20T14:24:29;2.47;;;1.67;;
18499;SDS011;9379;52.134;11.576;2023-12-20T14:26:56;1.73;;;1.63;;
18499;SDS011;9379;52.134;11.576;2023-12-20T14:29:23;1.35;;;1.27;;
18499;SDS011;9379;52.134;11.576;2023-12-20T14:31:50;1.45;;;1.27;;
18499;SDS011;9379;52.134;11.576;2023-12-20T14:34:17;0.90;;;0.90;;
18499;SDS011;9379;52.134;11.576;2023-12-20T14:36:44;2.00;;;1.63;;
18499;SDS011;9379;52.134;11.576;2023-12-20T14:39:12;0.80;;;0.80;;
18499;SDS011;9379;52.134;11.576;2023-12-20T14:41:39;1.38;;;1.13;;
18499;SDS011;9379;52.134;11.576;2023-12-20T14:44:07;0.82;;;0.75;;
18499;SDS011;9379;52.134;11.576;2023-12-20T14:46:33;1.23;;;1.13;;
18499;SDS011;9379;52.134;11.576;2023-12-20T14:49:00;1.23;;;1.15;;
18499;SDS011;9379;52.134;11.576;2023-12-20T14:51:28;2.67;;;1.38;;
18499;SDS011;9379;52.134;11.576;2023-12-20T14:53:55;5.03;;;2.05;;